Погода Ордубадна 2 недели

Нахичеванский район, Азербайджан

21 июля-03 августа
  • 21июля
    Сегодня
    +24°
    +35°
    Практически безоблачно
    ВремяПогодаТемператураВлажностьДавлениеВетер, м/сВероятность осадков
    01:00Практически безоблачно+27°C70 %682 мм2.3 м/с28 %
    04:00Ясно и безоблачно+26°C73 %682 мм1.3 м/с12 %
    07:00Ясно и безоблачно+26°C72 %683 мм0.5 м/с4 %
    10:00Практически безоблачно+29°C62 %684 мм0.8 м/с9 %
    13:00Практически безоблачно+33°C51 %683 мм1.1 м/с22 %
    16:00Практически безоблачно+34°C47 %683 мм3.0 м/с30 %
    19:00Ясно и безоблачно+32°C57 %683 мм4.1 м/с30 %
    22:00Ясно и безоблачно+28°C76 %684 мм3.6 м/с20 %
  • 22июля
    Понедельник
    +26°
    +37°
    Ясно и безоблачно
    ВремяПогодаТемператураВлажностьДавлениеВетер, м/сВероятность осадков
    01:00Практически безоблачно+27°C83 %684 мм3.0 м/с11 %
    04:00Практически безоблачно+26°C85 %684 мм2.6 м/с8 %
    07:00Ясно и безоблачно+25°C82 %684 мм3.0 м/с5 %
    10:00Ясно и безоблачно+31°C56 %685 мм3.9 м/с5 %
    13:00Ясно и безоблачно+35°C42 %684 мм4.3 м/с19 %
    16:00Практически безоблачно+36°C41 %683 мм4.7 м/с22 %
    19:00Ясно и безоблачно+34°C50 %683 мм4.8 м/с8 %
    22:00Ясно и безоблачно+31°C59 %684 мм3.6 м/с4 %
  • 23июля
    Вторник
    +27°
    +39°
    Ясно и безоблачно
    ВремяПогодаТемператураВлажностьДавлениеВетер, м/сВероятность осадков
    01:00Ясно и безоблачно+29°C62 %684 мм2.9 м/с2 %
    04:00Ясно и безоблачно+28°C65 %683 мм2.3 м/с2 %
    07:00Ясно и безоблачно+27°C61 %684 мм2.9 м/с2 %
    10:00Ясно и безоблачно+33°C42 %684 мм3.5 м/с2 %
    13:00Ясно и безоблачно+37°C31 %683 мм3.1 м/с22 %
    16:00Ясно и безоблачно+39°C29 %682 мм3.5 м/с27 %
    19:00Ясно и безоблачно+36°C40 %682 мм4.3 м/с7 %
    22:00Ясно и безоблачно+32°C54 %682 мм3.4 м/с2 %
  • 24июля
    Среда
    +25°
    +39°
    Ясно и безоблачно
    ВремяПогодаТемператураВлажностьДавлениеВетер, м/сВероятность осадков
    01:00Ясно и безоблачно+30°C60 %682 мм3.0 м/с2 %
    04:00Ясно и безоблачно+29°C62 %681 мм2.6 м/с2 %
    07:00Ясно и безоблачно+28°C59 %681 мм2.8 м/с2 %
    10:00Ясно и безоблачно+34°C46 %681 мм3.2 м/с2 %
    13:00Ясно и безоблачно+38°C33 %680 мм3.5 м/с22 %
    16:00Практически безоблачно+38°C36 %679 мм4.5 м/с27 %
    19:00Практически безоблачно+34°C49 %679 мм4.7 м/с23 %
    22:00Практически безоблачно+32°C56 %680 мм4.7 м/с22 %
  • 25июля
    Четверг
    +25°
    +35°
    Ясно и безоблачно
    ВремяПогодаТемператураВлажностьДавлениеВетер, м/сВероятность осадков
    01:00Практически безоблачно+29°C68 %680 мм4.5 м/с23 %
    04:00Практически безоблачно+27°C75 %679 мм4.0 м/с8 %
    07:00Практически безоблачно+26°C74 %680 мм4.0 м/с6 %
    10:00Практически безоблачно+31°C60 %681 мм4.9 м/с5 %
    13:00Ясно и безоблачно+34°C47 %680 мм5.7 м/с32 %
    16:00Практически безоблачно+34°C52 %680 мм6.2 м/с28 %
    19:00Ясно и безоблачно+31°C63 %680 мм5.8 м/с11 %
    22:00Практически безоблачно+29°C73 %681 мм5.6 м/с6 %
Мы используем cookies
Соглашаюсь